createdAt,value
2023-04-22T00:00:07.537Z,548.00
2023-04-22T00:01:07.569Z,547.00
2023-04-22T00:02:07.649Z,551.00
2023-04-22T00:03:07.721Z,550.00
2023-04-22T00:04:07.669Z,552.00
2023-04-22T00:05:07.650Z,546.00
2023-04-22T00:06:07.608Z,545.00
2023-04-22T00:07:07.589Z,553.00
2023-04-22T00:08:07.579Z,549.00
2023-04-22T00:09:07.590Z,550.00
2023-04-22T00:10:07.634Z,544.00
2023-04-22T00:11:07.596Z,544.00
2023-04-22T00:12:07.601Z,545.00
2023-04-22T00:13:07.586Z,548.00
2023-04-22T00:14:07.585Z,549.00
2023-04-22T00:15:07.554Z,549.00
2023-04-22T00:16:07.752Z,543.00
2023-04-22T00:17:07.542Z,549.00
2023-04-22T00:18:07.596Z,541.00
2023-04-22T00:19:07.516Z,544.00
2023-04-22T00:20:07.522Z,548.00
2023-04-22T00:21:07.498Z,548.00
2023-04-22T00:22:07.491Z,545.00
2023-04-22T00:23:07.508Z,549.00
2023-04-22T00:24:07.469Z,543.00
2023-04-22T00:25:07.464Z,546.00
2023-04-22T00:26:07.480Z,540.00
2023-04-22T00:27:07.456Z,541.00
2023-04-22T00:28:07.446Z,542.00
2023-04-22T00:29:07.439Z,543.00
2023-04-22T00:30:07.413Z,547.00
2023-04-22T00:31:07.439Z,548.00
2023-04-22T00:32:07.389Z,544.00
2023-04-22T00:33:07.410Z,546.00
2023-04-22T00:34:07.369Z,544.00
2023-04-22T00:35:07.389Z,547.00
2023-04-22T00:36:07.350Z,539.00
2023-04-22T00:37:07.350Z,540.00
2023-04-22T00:38:07.331Z,544.00
2023-04-22T00:39:07.328Z,537.00
2023-04-22T00:40:07.307Z,544.00
2023-04-22T00:41:07.302Z,545.00
2023-04-22T00:42:07.294Z,543.00
2023-04-22T00:43:07.278Z,541.00
2023-04-22T00:44:07.262Z,541.00
2023-04-22T00:45:07.261Z,541.00
2023-04-22T00:46:07.237Z,541.00
2023-04-22T00:47:07.406Z,538.00
2023-04-22T00:48:07.248Z,541.00
2023-04-22T00:49:07.207Z,538.00
2023-04-22T00:50:07.191Z,537.00
2023-04-22T00:51:07.198Z,538.00
2023-04-22T00:52:07.202Z,542.00
2023-04-22T00:53:07.209Z,535.00
2023-04-22T00:54:07.234Z,537.00
2023-04-22T00:55:07.235Z,532.00
2023-04-22T00:56:07.251Z,535.00
2023-04-22T00:57:07.237Z,531.00
2023-04-22T00:58:07.234Z,537.00
2023-04-22T00:59:07.250Z,537.00
2023-04-22T01:00:07.285Z,535.00
2023-04-22T01:01:07.332Z,535.00
2023-04-22T01:02:07.323Z,534.00
2023-04-22T01:03:07.433Z,533.00
2023-04-22T01:04:07.374Z,535.00
2023-04-22T01:05:07.286Z,535.00
2023-04-22T01:06:07.315Z,532.00
2023-04-22T01:07:07.338Z,537.00
2023-04-22T01:08:07.319Z,536.00
2023-04-22T01:09:07.331Z,534.00
2023-04-22T01:10:07.339Z,537.00
2023-04-22T01:11:07.347Z,535.00
2023-04-22T01:12:07.350Z,534.00
2023-04-22T01:13:07.335Z,535.00
2023-04-22T01:14:07.317Z,536.00
2023-04-22T01:15:07.344Z,535.00
2023-04-22T01:16:07.345Z,538.00
2023-04-22T01:17:07.319Z,531.00
2023-04-22T01:18:07.359Z,535.00
2023-04-22T01:19:07.282Z,531.00
2023-04-22T01:20:07.285Z,534.00
2023-04-22T01:21:07.375Z,537.00
2023-04-22T01:22:07.259Z,535.00
2023-04-22T01:23:07.266Z,533.00
2023-04-22T01:24:07.266Z,532.00
2023-04-22T01:25:07.241Z,531.00
2023-04-22T01:26:07.229Z,536.00
2023-04-22T01:27:07.228Z,526.00
2023-04-22T01:28:07.214Z,534.00
2023-04-22T01:29:07.213Z,527.00
2023-04-22T01:30:07.206Z,530.00
2023-04-22T01:31:07.238Z,532.00
2023-04-22T01:32:07.257Z,536.00
2023-04-22T01:33:07.234Z,531.00
2023-04-22T01:34:07.199Z,532.00
2023-04-22T01:35:07.226Z,528.00
2023-04-22T01:36:07.208Z,530.00
2023-04-22T01:37:07.193Z,528.00
2023-04-22T01:38:07.160Z,527.00
2023-04-22T01:39:07.229Z,526.00
2023-04-22T01:40:07.164Z,529.00
2023-04-22T01:41:07.132Z,525.00
2023-04-22T01:42:07.118Z,527.00
2023-04-22T01:43:07.145Z,520.00
2023-04-22T01:44:07.245Z,530.00
2023-04-22T01:45:07.191Z,527.00
2023-04-22T01:46:07.365Z,528.00
2023-04-22T01:47:07.208Z,528.00
2023-04-22T01:48:07.414Z,528.00
2023-04-22T01:49:07.222Z,527.00
2023-04-22T01:50:07.269Z,524.00
2023-04-22T01:51:07.262Z,530.00
2023-04-22T01:52:07.292Z,528.00
2023-04-22T01:53:07.287Z,520.00
2023-04-22T01:54:07.296Z,526.00
2023-04-22T01:55:07.317Z,529.00
2023-04-22T01:56:07.346Z,521.00
2023-04-22T01:57:07.367Z,532.00
2023-04-22T01:58:07.360Z,526.00
2023-04-22T01:59:07.384Z,524.00
2023-04-22T02:00:07.399Z,527.00
2023-04-22T02:01:07.468Z,526.00
2023-04-22T02:02:07.484Z,527.00
2023-04-22T02:03:07.570Z,526.00
2023-04-22T02:04:07.457Z,526.00
2023-04-22T02:05:07.504Z,526.00
2023-04-22T02:06:07.414Z,527.00
2023-04-22T02:07:07.400Z,529.00
2023-04-22T02:08:07.394Z,530.00
2023-04-22T02:09:07.383Z,526.00
2023-04-22T02:10:07.424Z,528.00
2023-04-22T02:11:07.381Z,521.00
2023-04-22T02:12:07.376Z,523.00
2023-04-22T02:13:07.344Z,519.00
2023-04-22T02:14:07.321Z,525.00
2023-04-22T02:15:07.405Z,523.00
2023-04-22T02:16:07.402Z,521.00
2023-04-22T02:17:07.339Z,512.00
2023-04-22T02:18:07.314Z,521.00
2023-04-22T02:19:07.359Z,521.00
2023-04-22T02:20:07.334Z,522.00
2023-04-22T02:21:07.394Z,520.00
2023-04-22T02:22:07.277Z,525.00
2023-04-22T02:23:07.254Z,521.00
2023-04-22T02:24:07.262Z,523.00
2023-04-22T02:25:07.255Z,522.00
2023-04-22T02:26:07.274Z,525.00
2023-04-22T02:27:07.242Z,516.00
2023-04-22T02:28:07.242Z,521.00
2023-04-22T02:29:07.260Z,520.00
2023-04-22T02:30:07.252Z,521.00
2023-04-22T02:31:07.283Z,517.00
2023-04-22T02:32:07.245Z,523.00
2023-04-22T02:33:07.305Z,521.00
2023-04-22T02:34:07.230Z,521.00
2023-04-22T02:35:07.218Z,520.00
2023-04-22T02:36:07.223Z,521.00
2023-04-22T02:37:07.237Z,515.00
2023-04-22T02:38:07.307Z,522.00
2023-04-22T02:39:07.208Z,517.00
2023-04-22T02:40:07.201Z,521.00
2023-04-22T02:41:07.196Z,521.00
2023-04-22T02:42:07.194Z,518.00
2023-04-22T02:43:07.189Z,518.00
2023-04-22T02:44:07.179Z,515.00
2023-04-22T02:45:07.208Z,492.00
2023-04-22T02:46:07.260Z,500.00
2023-04-22T02:47:07.271Z,500.00
2023-04-22T02:48:07.276Z,501.00
2023-04-22T02:49:07.235Z,496.00
2023-04-22T02:50:07.249Z,500.00
2023-04-22T02:51:07.282Z,502.00
2023-04-22T02:52:07.301Z,499.00
2023-04-22T02:53:07.317Z,500.00
2023-04-22T02:54:07.337Z,500.00
2023-04-22T02:55:07.354Z,500.00
2023-04-22T02:56:07.401Z,502.00
2023-04-22T02:57:07.419Z,501.00
2023-04-22T02:58:07.435Z,501.00
2023-04-22T02:59:07.467Z,500.00
2023-04-22T03:00:07.500Z,501.00
2023-04-22T03:01:07.695Z,500.00
2023-04-22T03:02:07.851Z,508.00
2023-04-22T03:03:07.821Z,500.00
2023-04-22T03:04:07.797Z,500.00
2023-04-22T03:05:07.720Z,500.00
2023-04-22T03:06:07.755Z,499.00
2023-04-22T03:07:07.814Z,502.00
2023-04-22T03:08:07.843Z,505.00
2023-04-22T03:09:07.927Z,507.00
2023-04-22T03:10:07.951Z,500.00
2023-04-22T03:11:08.030Z,505.00
2023-04-22T03:12:08.058Z,495.00
2023-04-22T03:13:08.128Z,500.00
2023-04-22T03:14:08.181Z,501.00
2023-04-22T03:15:08.248Z,503.00
2023-04-22T03:16:08.363Z,503.00
2023-04-22T03:17:08.373Z,503.00
2023-04-22T03:18:08.484Z,500.00
2023-04-22T03:19:08.502Z,501.00
2023-04-22T03:20:08.544Z,509.00
2023-04-22T03:21:08.614Z,508.00
2023-04-22T03:22:08.704Z,500.00
2023-04-22T03:23:08.696Z,500.00
2023-04-22T03:24:08.705Z,498.00
2023-04-22T03:25:08.742Z,510.00
2023-04-22T03:26:08.787Z,501.00
2023-04-22T03:27:08.810Z,502.00
2023-04-22T03:28:08.811Z,500.00
2023-04-22T03:29:08.820Z,500.00
2023-04-22T03:30:08.831Z,501.00
2023-04-22T03:31:08.868Z,501.00
2023-04-22T03:32:08.920Z,500.00
2023-04-22T03:33:08.960Z,500.00
2023-04-22T03:34:08.884Z,499.00
2023-04-22T03:35:08.877Z,493.00
2023-04-22T03:36:08.875Z,492.00
2023-04-22T03:37:08.877Z,484.00
2023-04-22T03:38:08.890Z,506.00
2023-04-22T03:39:08.864Z,507.00
2023-04-22T03:40:08.865Z,511.00
2023-04-22T03:41:08.860Z,500.00
2023-04-22T03:42:08.862Z,501.00
2023-04-22T03:43:08.868Z,511.00
2023-04-22T03:44:08.864Z,500.00
2023-04-22T03:45:08.875Z,502.00
2023-04-22T03:46:08.997Z,505.00
2023-04-22T03:47:08.853Z,507.00
2023-04-22T03:48:09.060Z,502.00
2023-04-22T03:49:08.842Z,506.00
2023-04-22T03:50:08.829Z,515.00
2023-04-22T03:51:08.861Z,504.00
2023-04-22T03:52:08.826Z,505.00
2023-04-22T03:53:08.850Z,500.00
2023-04-22T03:54:08.833Z,507.00
2023-04-22T03:55:08.830Z,507.00
2023-04-22T03:56:08.902Z,505.00
2023-04-22T03:57:08.827Z,501.00
2023-04-22T03:58:08.835Z,504.00
2023-04-22T03:59:08.841Z,503.00
2023-04-22T04:00:08.840Z,512.00
2023-04-22T04:01:08.862Z,515.00
2023-04-22T04:02:08.999Z,509.00
2023-04-22T04:03:09.307Z,533.00
2023-04-22T04:04:09.029Z,526.00
2023-04-22T04:05:09.129Z,520.00
2023-04-22T04:06:08.874Z,525.00
2023-04-22T04:07:08.877Z,525.00
2023-04-22T04:08:08.884Z,516.00
2023-04-22T04:09:08.879Z,516.00
2023-04-22T04:10:08.901Z,525.00
2023-04-22T04:11:08.932Z,531.00
2023-04-22T04:12:08.908Z,526.00
2023-04-22T04:13:08.891Z,527.00
2023-04-22T04:14:08.891Z,518.00
2023-04-22T04:15:08.908Z,519.00
2023-04-22T04:16:08.978Z,527.00
2023-04-22T04:17:08.903Z,511.00
2023-04-22T04:18:08.981Z,513.00
2023-04-22T04:19:08.930Z,529.00
2023-04-22T04:20:08.971Z,531.00
2023-04-22T04:21:09.020Z,524.00
2023-04-22T04:22:09.034Z,529.00
2023-04-22T04:23:09.091Z,522.00
2023-04-22T04:24:09.120Z,522.00
2023-04-22T04:25:09.150Z,533.00
2023-04-22T04:26:09.205Z,529.00
2023-04-22T04:27:09.231Z,522.00
2023-04-22T04:28:09.273Z,530.00
2023-04-22T04:29:09.304Z,535.00
2023-04-22T04:30:09.328Z,540.00
2023-04-22T04:31:09.425Z,538.00
2023-04-22T04:32:09.421Z,532.00
2023-04-22T04:33:09.527Z,540.00
2023-04-22T04:34:09.500Z,524.00
2023-04-22T04:35:09.570Z,534.00
2023-04-22T04:36:09.604Z,523.00
2023-04-22T04:37:09.644Z,543.00
2023-04-22T04:38:09.701Z,542.00
2023-04-22T04:39:09.769Z,530.00
2023-04-22T04:40:09.801Z,542.00
2023-04-22T04:41:09.854Z,537.00
2023-04-22T04:42:09.900Z,536.00
2023-04-22T04:43:09.944Z,544.00
2023-04-22T04:44:09.990Z,547.00
2023-04-22T04:45:10.039Z,542.00
2023-04-22T04:46:10.125Z,529.00
2023-04-22T04:47:10.160Z,537.00
2023-04-22T04:48:10.201Z,529.00
2023-04-22T04:49:10.236Z,543.00
2023-04-22T04:50:10.288Z,537.00
2023-04-22T04:51:10.355Z,533.00
2023-04-22T04:52:10.386Z,522.00
2023-04-22T04:53:10.428Z,539.00
2023-04-22T04:54:10.488Z,534.00
2023-04-22T04:55:10.535Z,539.00
2023-04-22T04:56:10.602Z,538.00
2023-04-22T04:57:10.646Z,544.00
2023-04-22T04:58:10.692Z,526.00
2023-04-22T04:59:10.752Z,539.00
2023-04-22T05:00:10.781Z,550.00
2023-04-22T05:01:10.892Z,556.00
2023-04-22T05:02:11.067Z,548.00
2023-04-22T05:03:11.052Z,557.00
2023-04-22T05:04:11.222Z,559.00
2023-04-22T05:05:11.058Z,560.00
2023-04-22T05:06:11.098Z,577.00
2023-04-22T05:07:11.148Z,563.00
2023-04-22T05:08:11.219Z,573.00
2023-04-22T05:09:11.256Z,580.00
2023-04-22T05:10:11.315Z,577.00
2023-04-22T05:11:11.356Z,584.00
2023-04-22T05:12:11.405Z,583.00
2023-04-22T05:13:11.505Z,588.00
2023-04-22T05:14:11.572Z,578.00
2023-04-22T05:15:11.578Z,576.00
2023-04-22T05:16:11.683Z,571.00
2023-04-22T05:17:11.679Z,565.00
2023-04-22T05:18:11.794Z,569.00
2023-04-22T05:19:11.799Z,577.00
2023-04-22T05:20:11.847Z,576.00
2023-04-22T05:21:11.908Z,576.00
2023-04-22T05:22:11.864Z,578.00
2023-04-22T05:23:11.874Z,579.00
2023-04-22T05:24:11.880Z,581.00
2023-04-22T05:25:11.897Z,580.00
2023-04-22T05:26:11.906Z,575.00
2023-04-22T05:27:11.914Z,569.00
2023-04-22T05:28:11.921Z,586.00
2023-04-22T05:29:11.946Z,579.00
2023-04-22T05:30:11.956Z,578.00
2023-04-22T05:31:11.976Z,579.00
2023-04-22T05:32:12.000Z,577.00
2023-04-22T05:33:11.996Z,577.00
2023-04-22T05:34:12.025Z,571.00
2023-04-22T05:35:11.986Z,578.00
2023-04-22T05:36:11.989Z,573.00
2023-04-22T05:37:12.017Z,573.00
2023-04-22T05:38:12.008Z,562.00
2023-04-22T05:39:12.012Z,561.00
2023-04-22T05:40:12.018Z,547.00
2023-04-22T05:41:12.021Z,536.00
2023-04-22T05:42:12.021Z,532.00
2023-04-22T05:43:12.049Z,525.00
2023-04-22T05:44:12.028Z,519.00
2023-04-22T05:45:12.052Z,526.00
2023-04-22T05:46:12.154Z,513.00
2023-04-22T05:47:12.164Z,512.00
2023-04-22T05:48:12.247Z,513.00
2023-04-22T05:49:12.225Z,513.00
2023-04-22T05:50:12.241Z,506.00
2023-04-22T05:51:12.245Z,508.00
2023-04-22T05:52:12.250Z,497.00
2023-04-22T05:53:12.266Z,489.00
2023-04-22T05:54:12.295Z,487.00
2023-04-22T05:55:12.339Z,472.00
2023-04-22T05:56:12.303Z,467.00
2023-04-22T05:57:12.290Z,463.00
2023-04-22T05:58:12.291Z,466.00
2023-04-22T05:59:12.325Z,502.00
2023-04-22T06:00:12.336Z,503.00
2023-04-22T06:01:12.337Z,500.00
2023-04-22T06:02:12.403Z,501.00
2023-04-22T06:03:12.481Z,499.00
2023-04-22T06:04:12.587Z,505.00
2023-04-22T06:05:12.464Z,500.00
2023-04-22T06:06:12.404Z,503.00
2023-04-22T06:07:12.441Z,500.00
2023-04-22T06:08:12.502Z,503.00
2023-04-22T06:09:12.564Z,507.00
2023-04-22T06:10:12.628Z,509.00
2023-04-22T06:11:12.717Z,504.00
2023-04-22T06:12:12.776Z,509.00
2023-04-22T06:13:12.812Z,511.00
2023-04-22T06:14:12.875Z,512.00
2023-04-22T06:15:12.907Z,512.00
2023-04-22T06:16:12.957Z,507.00
2023-04-22T06:17:12.924Z,503.00
2023-04-22T06:18:12.949Z,503.00
2023-04-22T06:19:12.929Z,502.00
2023-04-22T06:20:12.971Z,510.00
2023-04-22T06:21:12.962Z,507.00
2023-04-22T06:22:12.949Z,506.00
2023-04-22T06:23:12.960Z,509.00
2023-04-22T06:24:12.970Z,507.00
2023-04-22T06:25:12.980Z,504.00
2023-04-22T06:26:12.992Z,503.00
2023-04-22T06:27:13.004Z,503.00
2023-04-22T06:28:12.999Z,492.00
2023-04-22T06:29:13.018Z,490.00
2023-04-22T06:30:13.015Z,498.00
2023-04-22T06:31:13.061Z,491.00
2023-04-22T06:32:13.022Z,488.00
2023-04-22T06:33:13.097Z,480.00
2023-04-22T06:34:13.047Z,485.00
2023-04-22T06:35:13.054Z,477.00
2023-04-22T06:36:13.067Z,468.00
2023-04-22T06:37:13.075Z,461.00
2023-04-22T06:38:13.077Z,459.00
2023-04-22T06:39:13.087Z,499.00
2023-04-22T06:40:13.098Z,506.00
2023-04-22T06:41:13.102Z,510.00
2023-04-22T06:42:13.104Z,510.00
2023-04-22T06:43:13.113Z,506.00
2023-04-22T06:44:13.149Z,506.00
2023-04-22T06:45:13.218Z,509.00
2023-04-22T06:46:13.167Z,510.00
2023-04-22T06:47:13.132Z,506.00
2023-04-22T06:48:13.142Z,506.00
2023-04-22T06:49:13.141Z,502.00
2023-04-22T06:50:13.162Z,506.00
2023-04-22T06:51:13.213Z,490.00
2023-04-22T06:52:13.145Z,502.00
2023-04-22T06:53:13.149Z,492.00
2023-04-22T06:54:13.151Z,499.00
2023-04-22T06:55:13.155Z,481.00
2023-04-22T06:56:13.160Z,491.00
2023-04-22T06:57:13.137Z,462.00
2023-04-22T06:58:13.151Z,461.00
2023-04-22T06:59:13.155Z,507.00
2023-04-22T07:00:13.156Z,500.00
2023-04-22T07:01:13.177Z,507.00
2023-04-22T07:02:13.307Z,500.00
2023-04-22T07:03:13.221Z,504.00
2023-04-22T07:04:13.259Z,501.00
2023-04-22T07:05:13.203Z,501.00
2023-04-22T07:06:13.180Z,519.00
2023-04-22T07:07:13.194Z,513.00
2023-04-22T07:08:13.171Z,530.00
2023-04-22T07:09:13.198Z,522.00
2023-04-22T07:10:13.188Z,516.00
2023-04-22T07:11:14.540Z,516.00
2023-04-22T07:12:13.266Z,524.00
2023-04-22T07:13:13.333Z,516.00
2023-04-22T07:14:13.345Z,513.00
2023-04-22T07:15:13.397Z,520.00
2023-04-22T07:16:13.462Z,517.00
2023-04-22T07:17:13.471Z,509.00
2023-04-22T07:18:13.509Z,518.00
2023-04-22T07:19:13.521Z,506.00
2023-04-22T07:20:13.585Z,506.00
2023-04-22T07:21:13.592Z,520.00
2023-04-22T07:22:13.625Z,507.00
2023-04-22T07:23:13.647Z,513.00
2023-04-22T07:24:13.681Z,518.00
2023-04-22T07:25:13.712Z,505.00
2023-04-22T07:26:13.764Z,517.00
2023-04-22T07:27:13.783Z,511.00
2023-04-22T07:28:13.808Z,509.00
2023-04-22T07:29:13.844Z,504.00
2023-04-22T07:30:13.879Z,522.00
2023-04-22T07:31:13.899Z,517.00
2023-04-22T07:32:13.968Z,504.00
2023-04-22T07:33:13.947Z,505.00
2023-04-22T07:34:13.982Z,504.00
2023-04-22T07:35:13.956Z,504.00
2023-04-22T07:36:13.985Z,486.00
2023-04-22T07:37:13.976Z,492.00
2023-04-22T07:38:14.710Z,513.00
2023-04-22T07:39:14.005Z,511.00
2023-04-22T07:40:14.000Z,520.00
2023-04-22T07:41:14.024Z,523.00
2023-04-22T07:42:14.020Z,514.00
2023-04-22T07:43:14.021Z,501.00
2023-04-22T07:44:14.044Z,507.00
2023-04-22T07:45:14.050Z,518.00
2023-04-22T07:46:14.074Z,499.00
2023-04-22T07:47:14.076Z,503.00
2023-04-22T07:48:14.072Z,516.00
2023-04-22T07:49:14.341Z,511.00
2023-04-22T07:50:14.086Z,500.00
2023-04-22T07:51:14.144Z,515.00
2023-04-22T07:52:14.117Z,510.00
2023-04-22T07:53:14.114Z,518.00
2023-04-22T07:54:14.115Z,522.00
2023-04-22T07:55:14.123Z,505.00
2023-04-22T07:56:14.218Z,515.00
2023-04-22T07:57:14.139Z,505.00
2023-04-22T07:58:14.160Z,513.00
2023-04-22T07:59:14.144Z,521.00
2023-04-22T08:00:14.150Z,507.00
2023-04-22T08:01:14.189Z,501.00
2023-04-22T08:02:14.277Z,507.00
2023-04-22T08:03:14.332Z,523.00
2023-04-22T08:04:14.481Z,519.00
2023-04-22T08:05:14.278Z,508.00
2023-04-22T08:06:14.271Z,518.00
2023-04-22T08:07:31.749Z,510.00
2023-04-22T08:08:15.253Z,500.00
2023-04-22T08:09:14.268Z,510.00
2023-04-22T08:10:14.287Z,513.00
2023-04-22T08:11:14.288Z,505.00
2023-04-22T08:12:14.283Z,527.00
2023-04-22T08:13:15.293Z,502.00
2023-04-22T08:14:14.313Z,515.00
2023-04-22T08:15:14.303Z,501.00
2023-04-22T08:16:14.361Z,520.00
2023-04-22T08:17:14.312Z,507.00
2023-04-22T08:18:14.346Z,504.00
2023-04-22T08:19:14.337Z,520.00
2023-04-22T08:20:14.330Z,515.00
2023-04-22T08:21:14.334Z,510.00
2023-04-22T08:22:14.365Z,509.00
2023-04-22T08:23:14.344Z,506.00
2023-04-22T08:24:14.348Z,501.00
2023-04-22T08:25:14.353Z,504.00
2023-04-22T08:26:14.414Z,510.00
2023-04-22T08:27:14.472Z,501.00
2023-04-22T08:28:14.532Z,512.00
2023-04-22T08:29:14.601Z,501.00
2023-04-22T08:30:14.696Z,505.00
2023-04-22T08:31:14.796Z,499.00
2023-04-22T08:32:14.822Z,511.00
2023-04-22T08:33:14.869Z,518.00
2023-04-22T08:34:14.927Z,513.00
2023-04-22T08:35:15.005Z,512.00
2023-04-22T08:36:15.039Z,504.00
2023-04-22T08:37:15.104Z,508.00
2023-04-22T08:38:15.174Z,501.00
2023-04-22T08:39:15.246Z,514.00
2023-04-22T08:40:15.323Z,501.00
2023-04-22T08:41:15.399Z,502.00
2023-04-22T08:42:15.486Z,508.00
2023-04-22T08:43:15.544Z,512.00
2023-04-22T08:44:15.633Z,513.00
2023-04-22T08:45:15.696Z,506.00
2023-04-22T08:46:15.926Z,511.00
2023-04-22T08:47:15.851Z,556.00
2023-04-22T08:48:15.922Z,603.00
2023-04-22T08:49:15.976Z,653.00
2023-04-22T08:50:16.058Z,775.00
2023-04-22T08:51:16.109Z,894.00
2023-04-22T08:52:16.165Z,1006.00
2023-04-22T08:53:16.226Z,1161.00
2023-04-22T08:54:16.269Z,1241.00
2023-04-22T08:55:16.316Z,1347.00
2023-04-22T08:56:16.393Z,1414.00
2023-04-22T08:57:16.432Z,1460.00
2023-04-22T08:58:16.474Z,1501.00
2023-04-22T08:59:16.502Z,1528.00
2023-04-22T09:00:16.560Z,1569.00
2023-04-22T09:01:16.598Z,1574.00
2023-04-22T09:02:16.638Z,1610.00
2023-04-22T09:03:16.809Z,1615.00
2023-04-22T09:04:16.738Z,1635.00
2023-04-22T09:05:16.692Z,1676.00
2023-04-22T09:06:16.734Z,1695.00
2023-04-22T09:07:16.764Z,1729.00
2023-04-22T09:08:16.790Z,1774.00
2023-04-22T09:09:16.816Z,1824.00
2023-04-22T09:10:16.841Z,1833.00
2023-04-22T09:11:16.866Z,1865.00
2023-04-22T09:12:16.905Z,1878.00
2023-04-22T09:13:16.923Z,1888.00
2023-04-22T09:14:16.925Z,1954.00
2023-04-22T09:15:16.941Z,1981.00
2023-04-22T09:16:16.981Z,1998.00
2023-04-22T09:17:16.949Z,1999.00
2023-04-22T09:18:16.965Z,2005.00
2023-04-22T09:19:16.934Z,2031.00
2023-04-22T09:20:16.944Z,2071.00
2023-04-22T09:21:16.931Z,2117.00
2023-04-22T09:22:16.931Z,2156.00
2023-04-22T09:23:16.931Z,2180.00
2023-04-22T09:24:16.934Z,2215.00
2023-04-22T09:25:16.932Z,2216.00
2023-04-22T09:26:16.914Z,2221.00
2023-04-22T09:27:16.909Z,2238.00
2023-04-22T09:28:16.890Z,2255.00
2023-04-22T09:29:16.883Z,2305.00
2023-04-22T09:30:16.868Z,2316.00
2023-04-22T09:31:16.960Z,2325.00
2023-04-22T09:32:16.868Z,2326.00
2023-04-22T09:33:16.858Z,2332.00
2023-04-22T09:34:16.851Z,2349.00
2023-04-22T09:35:16.837Z,2376.00
2023-04-22T09:36:16.858Z,2421.00
2023-04-22T09:37:16.831Z,2429.00
2023-04-22T09:38:16.860Z,2434.00
2023-04-22T09:39:16.832Z,2455.00
2023-04-22T09:40:16.826Z,2468.00
2023-04-22T09:41:16.838Z,2475.00
2023-04-22T09:42:16.826Z,2468.00
2023-04-22T09:43:16.854Z,2488.00
2023-04-22T09:44:16.928Z,2494.00
2023-04-22T09:45:16.940Z,2497.00
2023-04-22T09:46:17.054Z,2508.00
2023-04-22T09:47:17.070Z,2521.00
2023-04-22T09:48:17.179Z,2535.00
2023-04-22T09:49:17.209Z,2527.00
2023-04-22T09:50:17.230Z,2546.00
2023-04-22T09:51:17.302Z,2542.00
2023-04-22T09:52:17.352Z,2549.00
2023-04-22T09:53:17.419Z,2557.00
2023-04-22T09:54:17.471Z,2566.00
2023-04-22T09:55:17.553Z,2571.00
2023-04-22T09:56:17.589Z,2576.00
2023-04-22T09:57:17.664Z,2566.00
2023-04-22T09:58:17.699Z,2588.00
2023-04-22T09:59:17.741Z,2591.00
2023-04-22T10:00:17.866Z,2590.00
2023-04-22T10:01:17.870Z,2592.00
2023-04-22T10:02:17.940Z,2608.00
2023-04-22T10:03:18.026Z,2602.00
2023-04-22T10:04:18.042Z,2595.00
2023-04-22T10:05:18.051Z,2602.00
2023-04-22T10:06:18.088Z,2610.00
2023-04-22T10:07:18.137Z,2620.00
2023-04-22T10:08:18.184Z,2622.00
2023-04-22T10:09:18.241Z,2621.00
2023-04-22T10:10:18.281Z,2607.00
2023-04-22T10:11:18.312Z,2611.00
2023-04-22T10:12:26.156Z,2625.00
2023-04-22T10:13:19.333Z,2626.00
2023-04-22T10:14:18.319Z,2627.00
2023-04-22T10:15:18.286Z,2631.00
2023-04-22T10:16:18.343Z,2635.00
2023-04-22T10:17:18.263Z,2631.00
2023-04-22T10:18:18.241Z,2647.00
2023-04-22T10:19:18.218Z,2640.00
2023-04-22T10:20:18.235Z,2642.00
2023-04-22T10:21:18.212Z,2644.00
2023-04-22T10:22:18.155Z,2646.00
2023-04-22T10:23:18.130Z,2652.00
2023-04-22T10:24:18.109Z,2657.00
2023-04-22T10:25:18.073Z,2658.00
2023-04-22T10:26:18.137Z,2652.00
2023-04-22T10:27:18.051Z,2647.00
2023-04-22T10:28:18.026Z,2649.00
2023-04-22T10:29:18.001Z,2632.00
2023-04-22T10:30:17.988Z,2646.00
2023-04-22T10:31:18.001Z,2647.00
2023-04-22T10:32:18.026Z,2652.00
2023-04-22T10:33:17.915Z,2641.00
2023-04-22T10:34:17.932Z,2649.00
2023-04-22T10:35:17.931Z,2638.00
2023-04-22T10:36:17.975Z,2627.00
2023-04-22T10:37:17.969Z,2636.00
2023-04-22T10:38:17.970Z,2646.00
2023-04-22T10:39:17.987Z,2634.00
2023-04-22T10:40:18.003Z,2646.00
2023-04-22T10:41:18.014Z,2645.00
2023-04-22T10:42:17.995Z,2636.00
2023-04-22T10:43:18.005Z,2642.00
2023-04-22T10:44:18.018Z,2636.00
2023-04-22T10:45:17.980Z,2637.00
2023-04-22T10:46:18.059Z,2638.00
2023-04-22T10:47:17.940Z,2637.00
2023-04-22T10:48:18.283Z,2645.00
2023-04-22T10:49:17.903Z,2649.00
2023-04-22T10:50:17.926Z,2636.00
2023-04-22T10:51:17.870Z,2653.00
2023-04-22T10:52:17.859Z,2645.00
2023-04-22T10:53:17.829Z,2639.00
2023-04-22T10:54:17.812Z,2634.00
2023-04-22T10:55:17.782Z,2644.00
2023-04-22T10:56:17.781Z,2639.00
2023-04-22T10:57:17.755Z,2642.00
2023-04-22T10:58:17.728Z,2623.00
2023-04-22T10:59:17.705Z,2637.00
2023-04-22T11:00:17.718Z,2622.00
2023-04-22T11:01:17.714Z,2624.00
2023-04-22T11:02:17.727Z,2626.00
2023-04-22T11:03:17.833Z,2624.00
2023-04-22T11:04:17.704Z,2628.00
2023-04-22T11:05:17.607Z,2636.00
2023-04-22T11:06:17.635Z,2628.00
2023-04-22T11:07:17.557Z,2638.00
2023-04-22T11:08:17.545Z,2625.00
2023-04-22T11:09:17.505Z,2632.00
2023-04-22T11:10:17.505Z,2626.00
2023-04-22T11:11:17.493Z,2631.00
2023-04-22T11:12:17.460Z,2623.00
2023-04-22T11:13:17.425Z,2625.00
2023-04-22T11:14:17.417Z,2624.00
2023-04-22T11:15:17.375Z,2626.00
2023-04-22T11:16:17.614Z,2622.00
2023-04-22T11:17:17.349Z,2609.00
2023-04-22T11:18:17.314Z,2631.00
2023-04-22T11:19:17.282Z,2623.00
2023-04-22T11:20:17.288Z,2607.00
2023-04-22T11:21:17.275Z,2614.00
2023-04-22T11:22:17.237Z,2623.00
2023-04-22T11:23:17.207Z,2602.00
2023-04-22T11:24:17.247Z,2605.00
2023-04-22T11:25:17.141Z,2598.00
2023-04-22T11:26:17.124Z,2605.00
2023-04-22T11:27:17.107Z,2608.00
2023-04-22T11:28:17.078Z,2600.00
2023-04-22T11:29:17.058Z,2616.00
2023-04-22T11:30:17.039Z,2604.00
2023-04-22T11:31:17.101Z,2601.00
2023-04-22T11:32:17.083Z,2599.00
2023-04-22T11:33:17.130Z,2597.00
2023-04-22T11:34:17.189Z,2594.00
2023-04-22T11:35:17.245Z,2596.00
2023-04-22T11:36:17.290Z,2598.00
2023-04-22T11:37:17.332Z,2583.00
2023-04-22T11:38:17.395Z,2591.00
2023-04-22T11:39:17.424Z,2591.00
2023-04-22T11:40:30.130Z,2594.00
2023-04-22T11:41:18.469Z,2594.00
2023-04-22T11:42:17.432Z,2596.00
2023-04-22T11:43:17.415Z,2598.00
2023-04-22T11:44:17.404Z,2598.00
2023-04-22T11:45:17.368Z,2592.00
2023-04-22T11:46:17.441Z,2607.00
2023-04-22T11:47:17.337Z,2601.00
2023-04-22T11:48:17.340Z,2609.00
2023-04-22T11:49:17.376Z,2588.00
2023-04-22T11:50:17.426Z,2595.00
2023-04-22T11:51:17.464Z,2582.00
2023-04-22T11:52:18.418Z,2607.00
2023-04-22T11:53:17.587Z,2594.00
2023-04-22T11:54:17.584Z,2570.00
2023-04-22T11:55:17.638Z,2587.00
2023-04-22T11:56:17.670Z,2584.00
2023-04-22T11:57:17.718Z,2574.00
2023-04-22T11:58:17.751Z,2581.00
2023-04-22T11:59:17.810Z,2581.00
2023-04-22T12:00:17.817Z,2581.00
2023-04-22T12:01:17.868Z,2594.00
2023-04-22T12:02:17.923Z,2590.00
2023-04-22T12:03:18.393Z,2587.00
2023-04-22T12:04:18.017Z,2594.00
2023-04-22T12:05:18.028Z,2590.00
2023-04-22T12:06:18.019Z,2590.00
2023-04-22T12:07:18.035Z,2585.00
2023-04-22T12:08:18.065Z,2578.00
2023-04-22T12:09:18.092Z,2584.00
2023-04-22T12:10:18.124Z,2584.00
2023-04-22T12:11:18.163Z,2577.00
2023-04-22T12:12:18.173Z,2576.00
2023-04-22T12:13:18.206Z,2583.00
2023-04-22T12:14:18.221Z,2587.00
2023-04-22T12:15:18.835Z,2580.00
2023-04-22T12:16:18.291Z,2581.00
2023-04-22T12:17:18.200Z,2581.00
2023-04-22T12:18:18.232Z,2580.00
2023-04-22T12:19:18.155Z,2582.00
2023-04-22T12:20:18.142Z,2578.00
2023-04-22T12:21:18.112Z,2594.00